createdAt,value
2022-12-20T00:03:29.160Z,9.17
2022-12-20T00:13:50.577Z,9.24
2022-12-20T00:24:12.013Z,9.38
2022-12-20T00:34:33.439Z,9.50
2022-12-20T00:44:54.814Z,9.46
2022-12-20T00:55:16.201Z,9.42
2022-12-20T01:05:37.607Z,9.46
2022-12-20T01:16:09.881Z,9.51
2022-12-20T01:26:31.255Z,9.58
2022-12-20T01:36:52.640Z,9.51
2022-12-20T01:47:14.033Z,9.51
2022-12-20T01:57:46.633Z,9.57
2022-12-20T02:08:09.265Z,9.59
2022-12-20T02:18:45.625Z,9.61
2022-12-20T02:29:16.059Z,9.63
2022-12-20T02:39:39.123Z,9.62
2022-12-20T02:50:01.029Z,9.60
2022-12-20T03:00:23.265Z,9.62
2022-12-20T03:10:44.949Z,9.67
2022-12-20T03:21:06.435Z,9.74
2022-12-20T03:31:28.005Z,9.79
2022-12-20T03:41:49.393Z,9.82
2022-12-20T03:52:14.248Z,9.77
2022-12-20T04:02:37.500Z,9.79
2022-12-20T04:12:59.130Z,9.85
2022-12-20T04:23:20.634Z,9.91
2022-12-20T04:33:41.985Z,9.92
2022-12-20T04:44:03.383Z,9.97
2022-12-20T04:54:26.323Z,9.87
2022-12-20T05:04:47.661Z,9.91
2022-12-20T05:15:09.629Z,9.87
2022-12-20T05:25:49.802Z,9.96
2022-12-20T05:36:11.156Z,10.02
2022-12-20T05:46:32.618Z,10.09
2022-12-20T05:56:54.207Z,10.20
2022-12-20T06:07:15.551Z,10.11
2022-12-20T06:17:36.903Z,10.22
2022-12-20T06:27:58.738Z,10.29
2022-12-20T06:38:20.161Z,10.26
2022-12-20T06:48:41.673Z,10.33
2022-12-20T06:59:03.029Z,10.35
2022-12-20T07:09:24.432Z,10.40
2022-12-20T07:19:50.800Z,10.45
2022-12-20T07:30:12.810Z,10.44
2022-12-20T07:40:35.548Z,10.45
2022-12-20T07:50:59.559Z,10.45
2022-12-20T08:01:21.465Z,10.52
2022-12-20T08:11:44.766Z,10.57
2022-12-20T08:22:06.298Z,10.49
2022-12-20T08:32:27.709Z,10.46
2022-12-20T08:42:50.039Z,10.46
2022-12-20T08:53:11.517Z,10.58
2022-12-20T09:03:33.437Z,10.62
2022-12-20T09:13:56.365Z,10.74
2022-12-20T09:24:17.808Z,10.85
2022-12-20T09:34:39.343Z,11.06
2022-12-20T09:45:06.345Z,11.24
2022-12-20T09:55:27.677Z,11.44
2022-12-20T10:05:54.143Z,11.46
2022-12-20T10:16:24.819Z,11.60
2022-12-20T10:26:49.226Z,11.62
2022-12-20T10:37:11.776Z,11.69
2022-12-20T10:47:39.006Z,11.80
2022-12-20T10:58:05.373Z,11.68
2022-12-20T11:08:51.159Z,11.60
2022-12-20T11:19:18.307Z,11.43
2022-12-20T11:29:50.555Z,11.28
2022-12-20T11:40:27.386Z,11.15
2022-12-20T11:50:51.729Z,11.07
2022-12-20T12:01:16.862Z,11.04
2022-12-20T12:12:06.641Z,11.00
2022-12-20T12:22:27.093Z,11.06
2022-12-20T12:32:58.143Z,11.08
2022-12-20T12:43:19.484Z,11.24
2022-12-20T12:53:45.803Z,11.14
2022-12-20T13:04:22.429Z,11.14
2022-12-20T13:14:43.789Z,11.23
2022-12-20T13:25:28.119Z,11.10
2022-12-20T13:35:55.991Z,11.09
2022-12-20T13:46:36.267Z,11.09
2022-12-20T13:56:59.389Z,11.07
2022-12-20T14:07:20.777Z,11.12
2022-12-20T14:17:44.783Z,11.06
2022-12-20T14:28:19.972Z,11.03
2022-12-20T14:38:45.739Z,11.01
2022-12-20T14:49:25.426Z,11.04
2022-12-20T14:59:56.362Z,11.07
2022-12-20T15:10:17.739Z,11.02
2022-12-20T15:20:39.859Z,11.08
2022-12-20T15:31:02.269Z,11.07
2022-12-20T15:41:23.641Z,11.05
2022-12-20T15:51:46.620Z,11.13
2022-12-20T16:02:22.128Z,11.11
2022-12-20T16:12:43.839Z,11.15
2022-12-20T16:23:07.478Z,11.17
2022-12-20T16:33:29.485Z,11.13
2022-12-20T16:43:51.148Z,11.14
2022-12-20T16:54:21.751Z,11.13
2022-12-20T17:04:43.374Z,11.14
2022-12-20T17:15:05.122Z,11.17
2022-12-20T17:25:28.691Z,11.11
2022-12-20T17:35:50.128Z,11.14
2022-12-20T17:46:11.550Z,11.10
2022-12-20T17:56:34.236Z,11.14
2022-12-20T18:06:56.627Z,11.22
2022-12-20T18:17:18.031Z,11.17
2022-12-20T18:27:40.841Z,11.15
2022-12-20T18:38:02.280Z,11.13
2022-12-20T18:48:24.582Z,11.10
2022-12-20T18:58:47.337Z,11.09
2022-12-20T19:09:10.238Z,11.05
2022-12-20T19:19:31.604Z,11.06
2022-12-20T19:29:54.441Z,11.00
2022-12-20T19:40:15.805Z,11.01
2022-12-20T19:50:37.183Z,10.99
2022-12-20T20:00:58.518Z,11.01
2022-12-20T20:11:21.011Z,10.97
2022-12-20T20:21:42.439Z,10.95
2022-12-20T20:32:04.060Z,10.96
2022-12-20T20:42:25.399Z,10.93
2022-12-20T20:52:46.968Z,10.93
2022-12-20T21:03:08.505Z,10.92
2022-12-20T21:13:29.957Z,10.88
2022-12-20T21:23:51.664Z,10.87
2022-12-20T21:34:13.105Z,10.82
2022-12-20T21:44:34.645Z,10.79
2022-12-20T21:54:55.980Z,10.83
2022-12-20T22:05:17.372Z,10.78
2022-12-20T22:15:39.090Z,10.79
2022-12-20T22:26:04.613Z,10.80
2022-12-20T22:36:26.542Z,10.81
2022-12-20T22:46:47.920Z,10.73
2022-12-20T22:57:11.940Z,10.75
2022-12-20T23:07:33.425Z,10.73
2022-12-20T23:17:54.776Z,10.72
2022-12-20T23:28:16.170Z,10.66
2022-12-20T23:38:38.171Z,10.58
2022-12-20T23:48:59.595Z,10.49
2022-12-20T23:59:21.015Z,10.51
